sensor_id;sensor_type;location;lat;lon;timestamp;P1;durP1;ratioP1;P2;durP2;ratioP2
10729;SDS011;5416;59.258;18.128;2024-03-06T00:00:27;3.13;;;3.03;;
10729;SDS011;5416;59.258;18.128;2024-03-06T00:02:54;2.80;;;2.70;;
10729;SDS011;5416;59.258;18.128;2024-03-06T00:05:21;2.78;;;2.67;;
10729;SDS011;5416;59.258;18.128;2024-03-06T00:07:50;2.90;;;2.80;;
10729;SDS011;5416;59.258;18.128;2024-03-06T00:10:17;3.10;;;3.00;;
10729;SDS011;5416;59.258;18.128;2024-03-06T00:12:44;2.80;;;2.70;;
10729;SDS011;5416;59.258;18.128;2024-03-06T00:15:11;2.70;;;2.60;;
10729;SDS011;5416;59.258;18.128;2024-03-06T00:17:38;3.05;;;2.95;;
10729;SDS011;5416;59.258;18.128;2024-03-06T00:20:06;2.70;;;2.60;;
10729;SDS011;5416;59.258;18.128;2024-03-06T00:22:35;2.97;;;2.88;;
10729;SDS011;5416;59.258;18.128;2024-03-06T00:25:04;3.10;;;3.00;;
10729;SDS011;5416;59.258;18.128;2024-03-06T00:27:31;2.58;;;2.47;;
10729;SDS011;5416;59.258;18.128;2024-03-06T00:29:58;3.20;;;3.10;;
10729;SDS011;5416;59.258;18.128;2024-03-06T00:32:26;2.97;;;2.88;;
10729;SDS011;5416;59.258;18.128;2024-03-06T00:34:53;2.90;;;2.80;;
10729;SDS011;5416;59.258;18.128;2024-03-06T00:37:20;2.90;;;2.80;;
10729;SDS011;5416;59.258;18.128;2024-03-06T00:39:48;2.75;;;2.65;;
10729;SDS011;5416;59.258;18.128;2024-03-06T00:42:16;3.13;;;3.03;;
10729;SDS011;5416;59.258;18.128;2024-03-06T00:44:43;2.50;;;2.40;;
10729;SDS011;5416;59.258;18.128;2024-03-06T00:47:10;2.90;;;2.80;;
10729;SDS011;5416;59.258;18.128;2024-03-06T00:49:38;2.35;;;2.25;;
10729;SDS011;5416;59.258;18.128;2024-03-06T00:52:07;3.28;;;3.17;;
10729;SDS011;5416;59.258;18.128;2024-03-06T00:54:35;2.50;;;2.40;;
10729;SDS011;5416;59.258;18.128;2024-03-06T00:57:02;3.40;;;3.30;;
10729;SDS011;5416;59.258;18.128;2024-03-06T00:59:31;2.38;;;2.28;;
10729;SDS011;5416;59.258;18.128;2024-03-06T01:01:58;2.78;;;2.67;;
10729;SDS011;5416;59.258;18.128;2024-03-06T01:04:25;2.67;;;2.58;;
10729;SDS011;5416;59.258;18.128;2024-03-06T01:06:52;2.75;;;2.65;;
10729;SDS011;5416;59.258;18.128;2024-03-06T01:09:19;2.90;;;2.80;;
10729;SDS011;5416;59.258;18.128;2024-03-06T01:11:48;2.92;;;2.83;;
10729;SDS011;5416;59.258;18.128;2024-03-06T01:14:15;2.60;;;2.50;;
10729;SDS011;5416;59.258;18.128;2024-03-06T01:16:44;2.90;;;2.80;;
10729;SDS011;5416;59.258;18.128;2024-03-06T01:19:11;2.95;;;2.85;;
10729;SDS011;5416;59.258;18.128;2024-03-06T01:21:39;2.50;;;2.40;;
10729;SDS011;5416;59.258;18.128;2024-03-06T01:24:06;2.83;;;2.72;;
10729;SDS011;5416;59.258;18.128;2024-03-06T01:26:33;3.17;;;3.08;;
10729;SDS011;5416;59.258;18.128;2024-03-06T01:29:00;2.60;;;2.50;;
10729;SDS011;5416;59.258;18.128;2024-03-06T01:31:27;2.58;;;2.47;;
10729;SDS011;5416;59.258;18.128;2024-03-06T01:33:56;2.90;;;2.80;;
10729;SDS011;5416;59.258;18.128;2024-03-06T01:36:23;2.53;;;2.42;;
10729;SDS011;5416;59.258;18.128;2024-03-06T01:38:50;2.80;;;2.70;;
10729;SDS011;5416;59.258;18.128;2024-03-06T01:41:17;3.13;;;3.03;;
10729;SDS011;5416;59.258;18.128;2024-03-06T01:43:45;2.70;;;2.60;;
10729;SDS011;5416;59.258;18.128;2024-03-06T01:46:12;2.95;;;2.85;;
10729;SDS011;5416;59.258;18.128;2024-03-06T01:48:39;2.65;;;2.55;;
10729;SDS011;5416;59.258;18.128;2024-03-06T01:51:09;2.97;;;2.87;;
10729;SDS011;5416;59.258;18.128;2024-03-06T01:53:36;3.08;;;2.97;;
10729;SDS011;5416;59.258;18.128;2024-03-06T01:56:04;2.40;;;2.30;;
10729;SDS011;5416;59.258;18.128;2024-03-06T01:58:31;2.70;;;2.60;;
10729;SDS011;5416;59.258;18.128;2024-03-06T02:01:00;2.63;;;2.53;;
10729;SDS011;5416;59.258;18.128;2024-03-06T02:03:27;2.20;;;2.10;;
10729;SDS011;5416;59.258;18.128;2024-03-06T02:05:54;2.80;;;2.70;;
10729;SDS011;5416;59.258;18.128;2024-03-06T02:08:24;3.00;;;2.90;;
10729;SDS011;5416;59.258;18.128;2024-03-06T02:10:51;2.90;;;2.80;;
10729;SDS011;5416;59.258;18.128;2024-03-06T02:13:18;2.73;;;2.63;;
10729;SDS011;5416;59.258;18.128;2024-03-06T02:15:47;3.20;;;3.10;;
10729;SDS011;5416;59.258;18.128;2024-03-06T02:18:15;2.72;;;2.63;;
10729;SDS011;5416;59.258;18.128;2024-03-06T02:20:43;2.80;;;2.70;;
10729;SDS011;5416;59.258;18.128;2024-03-06T02:23:12;3.00;;;2.90;;
10729;SDS011;5416;59.258;18.128;2024-03-06T02:25:39;2.60;;;2.50;;
10729;SDS011;5416;59.258;18.128;2024-03-06T02:28:07;3.05;;;2.95;;
10729;SDS011;5416;59.258;18.128;2024-03-06T02:30:34;2.63;;;2.53;;
10729;SDS011;5416;59.258;18.128;2024-03-06T02:33:01;2.55;;;2.45;;
10729;SDS011;5416;59.258;18.128;2024-03-06T02:35:31;3.10;;;3.00;;
10729;SDS011;5416;59.258;18.128;2024-03-06T02:38:00;2.50;;;2.40;;
10729;SDS011;5416;59.258;18.128;2024-03-06T02:40:28;2.65;;;2.55;;
10729;SDS011;5416;59.258;18.128;2024-03-06T02:42:55;2.90;;;2.80;;
10729;SDS011;5416;59.258;18.128;2024-03-06T02:45:22;2.70;;;2.60;;
10729;SDS011;5416;59.258;18.128;2024-03-06T02:47:49;2.78;;;2.67;;
10729;SDS011;5416;59.258;18.128;2024-03-06T02:50:16;3.10;;;3.00;;
10729;SDS011;5416;59.258;18.128;2024-03-06T02:52:43;2.70;;;2.60;;
10729;SDS011;5416;59.258;18.128;2024-03-06T02:55:12;3.03;;;2.92;;
10729;SDS011;5416;59.258;18.128;2024-03-06T02:57:39;3.27;;;3.17;;
10729;SDS011;5416;59.258;18.128;2024-03-06T03:00:07;2.80;;;2.70;;
10729;SDS011;5416;59.258;18.128;2024-03-06T03:02:38;2.85;;;2.75;;
10729;SDS011;5416;59.258;18.128;2024-03-06T03:05:05;3.20;;;3.10;;
10729;SDS011;5416;59.258;18.128;2024-03-06T03:07:33;2.72;;;2.63;;
10729;SDS011;5416;59.258;18.128;2024-03-06T03:10:00;3.05;;;2.95;;
10729;SDS011;5416;59.258;18.128;2024-03-06T03:12:30;3.15;;;3.05;;
10729;SDS011;5416;59.258;18.128;2024-03-06T03:14:57;2.40;;;2.30;;
10729;SDS011;5416;59.258;18.128;2024-03-06T03:17:24;2.92;;;2.83;;
10729;SDS011;5416;59.258;18.128;2024-03-06T03:19:51;2.92;;;2.83;;
10729;SDS011;5416;59.258;18.128;2024-03-06T03:22:19;2.85;;;2.75;;
10729;SDS011;5416;59.258;18.128;2024-03-06T03:24:46;2.67;;;2.58;;
10729;SDS011;5416;59.258;18.128;2024-03-06T03:27:13;3.10;;;3.00;;
10729;SDS011;5416;59.258;18.128;2024-03-06T03:29:42;2.80;;;2.70;;
10729;SDS011;5416;59.258;18.128;2024-03-06T03:32:09;2.88;;;2.78;;
10729;SDS011;5416;59.258;18.128;2024-03-06T03:34:36;3.30;;;3.20;;
10729;SDS011;5416;59.258;18.128;2024-03-06T03:37:04;2.58;;;2.47;;
10729;SDS011;5416;59.258;18.128;2024-03-06T03:39:31;2.85;;;2.75;;
10729;SDS011;5416;59.258;18.128;2024-03-06T03:41:58;2.70;;;2.60;;
10729;SDS011;5416;59.258;18.128;2024-03-06T03:44:25;2.78;;;2.67;;
10729;SDS011;5416;59.258;18.128;2024-03-06T03:46:54;2.80;;;2.70;;
10729;SDS011;5416;59.258;18.128;2024-03-06T03:49:21;2.28;;;2.17;;
10729;SDS011;5416;59.258;18.128;2024-03-06T03:51:48;2.75;;;2.65;;
10729;SDS011;5416;59.258;18.128;2024-03-06T03:54:15;2.90;;;2.80;;
10729;SDS011;5416;59.258;18.128;2024-03-06T03:56:42;2.42;;;2.33;;
10729;SDS011;5416;59.258;18.128;2024-03-06T03:59:10;3.00;;;2.90;;
10729;SDS011;5416;59.258;18.128;2024-03-06T04:01:37;2.85;;;2.75;;
10729;SDS011;5416;59.258;18.128;2024-03-06T04:04:06;2.50;;;2.40;;
10729;SDS011;5416;59.258;18.128;2024-03-06T04:06:33;2.90;;;2.80;;
10729;SDS011;5416;59.258;18.128;2024-03-06T04:09:00;3.00;;;2.90;;
10729;SDS011;5416;59.258;18.128;2024-03-06T04:11:27;2.65;;;2.55;;
10729;SDS011;5416;59.258;18.128;2024-03-06T04:13:55;2.60;;;2.50;;
10729;SDS011;5416;59.258;18.128;2024-03-06T04:16:22;2.88;;;2.78;;
10729;SDS011;5416;59.258;18.128;2024-03-06T04:18:49;3.00;;;2.90;;
10729;SDS011;5416;59.258;18.128;2024-03-06T04:21:18;2.42;;;2.33;;
10729;SDS011;5416;59.258;18.128;2024-03-06T04:23:45;2.90;;;2.80;;
10729;SDS011;5416;59.258;18.128;2024-03-06T04:26:12;3.08;;;2.97;;
10729;SDS011;5416;59.258;18.128;2024-03-06T04:28:39;2.50;;;2.40;;
10729;SDS011;5416;59.258;18.128;2024-03-06T04:31:06;2.90;;;2.80;;
10729;SDS011;5416;59.258;18.128;2024-03-06T04:33:33;2.65;;;2.55;;
10729;SDS011;5416;59.258;18.128;2024-03-06T04:36:01;2.53;;;2.42;;
10729;SDS011;5416;59.258;18.128;2024-03-06T04:38:29;2.63;;;2.53;;
10729;SDS011;5416;59.258;18.128;2024-03-06T04:40:57;2.45;;;2.35;;
10729;SDS011;5416;59.258;18.128;2024-03-06T04:43:24;2.85;;;2.75;;
10729;SDS011;5416;59.258;18.128;2024-03-06T04:45:51;3.03;;;2.93;;
10729;SDS011;5416;59.258;18.128;2024-03-06T04:48:18;2.43;;;2.33;;
10729;SDS011;5416;59.258;18.128;2024-03-06T04:50:45;3.00;;;2.90;;
10729;SDS011;5416;59.258;18.128;2024-03-06T04:53:13;2.53;;;2.42;;
10729;SDS011;5416;59.258;18.128;2024-03-06T04:55:41;2.50;;;2.40;;
10729;SDS011;5416;59.258;18.128;2024-03-06T04:58:08;2.80;;;2.70;;
10729;SDS011;5416;59.258;18.128;2024-03-06T05:00:36;2.55;;;2.45;;
10729;SDS011;5416;59.258;18.128;2024-03-06T05:03:03;2.80;;;2.70;;
10729;SDS011;5416;59.258;18.128;2024-03-06T05:05:30;2.97;;;2.88;;
10729;SDS011;5416;59.258;18.128;2024-03-06T05:07:57;2.50;;;2.40;;
10729;SDS011;5416;59.258;18.128;2024-03-06T05:10:25;2.78;;;2.67;;
10729;SDS011;5416;59.258;18.128;2024-03-06T05:12:53;2.95;;;2.85;;
10729;SDS011;5416;59.258;18.128;2024-03-06T05:15:21;2.72;;;2.63;;
10729;SDS011;5416;59.258;18.128;2024-03-06T05:17:48;2.70;;;2.60;;
10729;SDS011;5416;59.258;18.128;2024-03-06T05:20:15;2.83;;;2.72;;
10729;SDS011;5416;59.258;18.128;2024-03-06T05:22:42;3.30;;;3.20;;
10729;SDS011;5416;59.258;18.128;2024-03-06T05:25:10;3.40;;;3.30;;
10729;SDS011;5416;59.258;18.128;2024-03-06T05:27:37;2.83;;;2.72;;
10729;SDS011;5416;59.258;18.128;2024-03-06T05:30:06;3.05;;;2.95;;
10729;SDS011;5416;59.258;18.128;2024-03-06T05:32:33;3.25;;;3.15;;
10729;SDS011;5416;59.258;18.128;2024-03-06T05:35:00;2.70;;;2.60;;
10729;SDS011;5416;59.258;18.128;2024-03-06T05:37:28;3.20;;;3.10;;
10729;SDS011;5416;59.258;18.128;2024-03-06T05:39:56;3.40;;;3.30;;
10729;SDS011;5416;59.258;18.128;2024-03-06T05:42:23;2.80;;;2.70;;
10729;SDS011;5416;59.258;18.128;2024-03-06T05:44:50;2.80;;;2.70;;
10729;SDS011;5416;59.258;18.128;2024-03-06T05:47:21;2.92;;;2.83;;
10729;SDS011;5416;59.258;18.128;2024-03-06T05:49:48;3.03;;;2.92;;
10729;SDS011;5416;59.258;18.128;2024-03-06T05:52:15;2.58;;;2.47;;
10729;SDS011;5416;59.258;18.128;2024-03-06T05:54:42;3.03;;;2.92;;
10729;SDS011;5416;59.258;18.128;2024-03-06T05:57:09;3.35;;;3.25;;
10729;SDS011;5416;59.258;18.128;2024-03-06T05:59:37;2.50;;;2.40;;
10729;SDS011;5416;59.258;18.128;2024-03-06T06:02:05;3.08;;;2.97;;
10729;SDS011;5416;59.258;18.128;2024-03-06T06:04:34;3.30;;;3.20;;
10729;SDS011;5416;59.258;18.128;2024-03-06T06:07:01;2.75;;;2.65;;
10729;SDS011;5416;59.258;18.128;2024-03-06T06:09:28;2.77;;;2.67;;
10729;SDS011;5416;59.258;18.128;2024-03-06T06:11:58;2.88;;;2.78;;
10729;SDS011;5416;59.258;18.128;2024-03-06T06:14:25;2.45;;;2.35;;
10729;SDS011;5416;59.258;18.128;2024-03-06T06:16:54;2.80;;;2.70;;
10729;SDS011;5416;59.258;18.128;2024-03-06T06:19:21;2.95;;;2.85;;
10729;SDS011;5416;59.258;18.128;2024-03-06T06:21:52;3.28;;;3.17;;
10729;SDS011;5416;59.258;18.128;2024-03-06T06:24:19;2.80;;;2.70;;
10729;SDS011;5416;59.258;18.128;2024-03-06T06:26:46;2.90;;;2.80;;
10729;SDS011;5416;59.258;18.128;2024-03-06T06:29:13;3.17;;;3.07;;
10729;SDS011;5416;59.258;18.128;2024-03-06T06:31:43;2.50;;;2.40;;
10729;SDS011;5416;59.258;18.128;2024-03-06T06:34:11;2.90;;;2.80;;
10729;SDS011;5416;59.258;18.128;2024-03-06T06:36:39;3.10;;;3.00;;
10729;SDS011;5416;59.258;18.128;2024-03-06T06:39:07;2.95;;;2.85;;
10729;SDS011;5416;59.258;18.128;2024-03-06T06:41:36;2.97;;;2.88;;
10729;SDS011;5416;59.258;18.128;2024-03-06T06:44:03;2.95;;;2.85;;
10729;SDS011;5416;59.258;18.128;2024-03-06T06:46:30;3.25;;;3.15;;
10729;SDS011;5416;59.258;18.128;2024-03-06T06:48:57;2.80;;;2.70;;
10729;SDS011;5416;59.258;18.128;2024-03-06T06:51:25;2.75;;;2.65;;
10729;SDS011;5416;59.258;18.128;2024-03-06T06:53:52;2.90;;;2.80;;
10729;SDS011;5416;59.258;18.128;2024-03-06T06:56:21;3.28;;;3.17;;
10729;SDS011;5416;59.258;18.128;2024-03-06T06:58:50;2.65;;;2.55;;
10729;SDS011;5416;59.258;18.128;2024-03-06T07:01:17;2.72;;;2.63;;
10729;SDS011;5416;59.258;18.128;2024-03-06T07:03:45;3.30;;;3.20;;
10729;SDS011;5416;59.258;18.128;2024-03-06T07:06:12;3.40;;;3.30;;
10729;SDS011;5416;59.258;18.128;2024-03-06T07:08:39;2.40;;;2.30;;
10729;SDS011;5416;59.258;18.128;2024-03-06T07:11:06;2.53;;;2.42;;
10729;SDS011;5416;59.258;18.128;2024-03-06T07:13:35;3.03;;;2.92;;
10729;SDS011;5416;59.258;18.128;2024-03-06T07:16:02;3.25;;;3.15;;
10729;SDS011;5416;59.258;18.128;2024-03-06T07:18:30;2.50;;;2.40;;
10729;SDS011;5416;59.258;18.128;2024-03-06T07:20:57;2.88;;;2.78;;
10729;SDS011;5416;59.258;18.128;2024-03-06T07:23:24;2.72;;;2.63;;
10729;SDS011;5416;59.258;18.128;2024-03-06T07:25:51;3.22;;;3.13;;
10729;SDS011;5416;59.258;18.128;2024-03-06T07:28:19;2.65;;;2.55;;
10729;SDS011;5416;59.258;18.128;2024-03-06T07:30:48;2.83;;;2.72;;
10729;SDS011;5416;59.258;18.128;2024-03-06T07:33:15;2.85;;;2.75;;
10729;SDS011;5416;59.258;18.128;2024-03-06T07:35:42;3.10;;;3.00;;
10729;SDS011;5416;59.258;18.128;2024-03-06T07:38:09;2.90;;;2.80;;
10729;SDS011;5416;59.258;18.128;2024-03-06T07:40:36;2.65;;;2.55;;
10729;SDS011;5416;59.258;18.128;2024-03-06T07:43:04;3.08;;;2.97;;
10729;SDS011;5416;59.258;18.128;2024-03-06T07:45:31;2.97;;;2.88;;
10729;SDS011;5416;59.258;18.128;2024-03-06T07:47:59;3.38;;;3.28;;
10729;SDS011;5416;59.258;18.128;2024-03-06T07:50:27;2.63;;;2.53;;
10729;SDS011;5416;59.258;18.128;2024-03-06T07:52:54;2.80;;;2.70;;
10729;SDS011;5416;59.258;18.128;2024-03-06T07:55:21;2.85;;;2.75;;
10729;SDS011;5416;59.258;18.128;2024-03-06T07:57:48;3.30;;;3.20;;
10729;SDS011;5416;59.258;18.128;2024-03-06T08:00:16;2.72;;;2.63;;
10729;SDS011;5416;59.258;18.128;2024-03-06T08:02:44;2.90;;;2.80;;
10729;SDS011;5416;59.258;18.128;2024-03-06T08:05:16;3.10;;;3.00;;
10729;SDS011;5416;59.258;18.128;2024-03-06T08:07:43;3.50;;;3.40;;
10729;SDS011;5416;59.258;18.128;2024-03-06T08:10:11;3.17;;;3.08;;
10729;SDS011;5416;59.258;18.128;2024-03-06T08:12:39;2.83;;;2.72;;
10729;SDS011;5416;59.258;18.128;2024-03-06T08:15:07;2.58;;;2.47;;
10729;SDS011;5416;59.258;18.128;2024-03-06T08:17:36;3.30;;;3.20;;
10729;SDS011;5416;59.258;18.128;2024-03-06T08:20:03;3.47;;;3.38;;
10729;SDS011;5416;59.258;18.128;2024-03-06T08:22:34;2.77;;;2.67;;
10729;SDS011;5416;59.258;18.128;2024-03-06T08:25:04;2.88;;;2.78;;
10729;SDS011;5416;59.258;18.128;2024-03-06T08:27:32;3.17;;;3.08;;
10729;SDS011;5416;59.258;18.128;2024-03-06T08:29:59;3.33;;;3.22;;
10729;SDS011;5416;59.258;18.128;2024-03-06T08:32:26;3.20;;;3.10;;
10729;SDS011;5416;59.258;18.128;2024-03-06T08:34:54;3.20;;;3.10;;
10729;SDS011;5416;59.258;18.128;2024-03-06T08:37:21;3.00;;;2.90;;
10729;SDS011;5416;59.258;18.128;2024-03-06T08:39:49;3.13;;;3.03;;
10729;SDS011;5416;59.258;18.128;2024-03-06T08:42:16;3.05;;;2.95;;
10729;SDS011;5416;59.258;18.128;2024-03-06T08:44:44;3.28;;;3.17;;
10729;SDS011;5416;59.258;18.128;2024-03-06T08:47:11;3.00;;;2.90;;
10729;SDS011;5416;59.258;18.128;2024-03-06T08:49:39;3.40;;;3.30;;
10729;SDS011;5416;59.258;18.128;2024-03-06T08:52:06;2.70;;;2.60;;
10729;SDS011;5416;59.258;18.128;2024-03-06T08:54:34;2.75;;;2.65;;
10729;SDS011;5416;59.258;18.128;2024-03-06T08:57:03;2.88;;;2.78;;
10729;SDS011;5416;59.258;18.128;2024-03-06T08:59:30;3.17;;;3.08;;
10729;SDS011;5416;59.258;18.128;2024-03-06T09:01:58;3.20;;;3.10;;
10729;SDS011;5416;59.258;18.128;2024-03-06T09:04:25;3.50;;;3.40;;
10729;SDS011;5416;59.258;18.128;2024-03-06T09:06:52;3.75;;;3.65;;
10729;SDS011;5416;59.258;18.128;2024-03-06T09:09:19;2.90;;;2.80;;
10729;SDS011;5416;59.258;18.128;2024-03-06T09:11:47;3.30;;;3.20;;
10729;SDS011;5416;59.258;18.128;2024-03-06T09:14:15;3.03;;;2.92;;
10729;SDS011;5416;59.258;18.128;2024-03-06T09:16:43;2.88;;;2.78;;
10729;SDS011;5416;59.258;18.128;2024-03-06T09:19:10;3.10;;;3.00;;
10729;SDS011;5416;59.258;18.128;2024-03-06T09:21:37;3.13;;;3.03;;
10729;SDS011;5416;59.258;18.128;2024-03-06T09:24:04;3.13;;;3.03;;
10729;SDS011;5416;59.258;18.128;2024-03-06T09:26:31;3.40;;;3.30;;
10729;SDS011;5416;59.258;18.128;2024-03-06T09:28:59;3.65;;;3.55;;
10729;SDS011;5416;59.258;18.128;2024-03-06T09:31:28;3.60;;;3.50;;
10729;SDS011;5416;59.258;18.128;2024-03-06T09:33:55;3.92;;;3.83;;
10729;SDS011;5416;59.258;18.128;2024-03-06T09:36:23;3.75;;;3.65;;
10729;SDS011;5416;59.258;18.128;2024-03-06T09:38:50;3.87;;;3.77;;
10729;SDS011;5416;59.258;18.128;2024-03-06T09:41:17;3.72;;;3.63;;
10729;SDS011;5416;59.258;18.128;2024-03-06T09:43:44;3.20;;;3.10;;
10729;SDS011;5416;59.258;18.128;2024-03-06T09:46:12;3.15;;;3.05;;
10729;SDS011;5416;59.258;18.128;2024-03-06T09:48:42;3.65;;;3.55;;
10729;SDS011;5416;59.258;18.128;2024-03-06T09:51:12;3.97;;;3.88;;
10729;SDS011;5416;59.258;18.128;2024-03-06T09:53:39;3.40;;;3.30;;
10729;SDS011;5416;59.258;18.128;2024-03-06T09:56:07;3.55;;;3.45;;
10729;SDS011;5416;59.258;18.128;2024-03-06T09:58:34;3.72;;;3.63;;
10729;SDS011;5416;59.258;18.128;2024-03-06T10:01:02;3.90;;;3.80;;
10729;SDS011;5416;59.258;18.128;2024-03-06T10:03:32;3.60;;;3.50;;
10729;SDS011;5416;59.258;18.128;2024-03-06T10:06:00;3.37;;;3.27;;
10729;SDS011;5416;59.258;18.128;2024-03-06T10:08:27;3.40;;;3.30;;
10729;SDS011;5416;59.258;18.128;2024-03-06T10:10:54;3.75;;;3.65;;
10729;SDS011;5416;59.258;18.128;2024-03-06T10:13:23;3.80;;;3.70;;
10729;SDS011;5416;59.258;18.128;2024-03-06T10:15:57;3.70;;;3.60;;
10729;SDS011;5416;59.258;18.128;2024-03-06T10:18:23;4.07;;;3.97;;
10729;SDS011;5416;59.258;18.128;2024-03-06T10:20:53;3.60;;;3.50;;
10729;SDS011;5416;59.258;18.128;2024-03-06T10:23:21;3.72;;;3.63;;
10729;SDS011;5416;59.258;18.128;2024-03-06T10:25:49;3.80;;;3.70;;
10729;SDS011;5416;59.258;18.128;2024-03-06T10:28:17;3.65;;;3.55;;
10729;SDS011;5416;59.258;18.128;2024-03-06T10:30:45;3.93;;;3.83;;
10729;SDS011;5416;59.258;18.128;2024-03-06T10:33:12;4.50;;;4.40;;
10729;SDS011;5416;59.258;18.128;2024-03-06T10:35:40;3.92;;;3.83;;
10729;SDS011;5416;59.258;18.128;2024-03-06T10:38:07;3.60;;;3.50;;
10729;SDS011;5416;59.258;18.128;2024-03-06T10:40:37;3.50;;;3.40;;
10729;SDS011;5416;59.258;18.128;2024-03-06T10:43:05;3.60;;;3.50;;
10729;SDS011;5416;59.258;18.128;2024-03-06T10:45:36;3.83;;;3.73;;
10729;SDS011;5416;59.258;18.128;2024-03-06T10:48:07;3.35;;;3.25;;
10729;SDS011;5416;59.258;18.128;2024-03-06T10:50:36;3.35;;;3.25;;
10729;SDS011;5416;59.258;18.128;2024-03-06T10:53:04;3.70;;;3.60;;
10729;SDS011;5416;59.258;18.128;2024-03-06T10:55:32;4.03;;;3.92;;
10729;SDS011;5416;59.258;18.128;2024-03-06T10:58:02;3.88;;;3.78;;
10729;SDS011;5416;59.258;18.128;2024-03-06T11:00:30;3.80;;;3.70;;
10729;SDS011;5416;59.258;18.128;2024-03-06T11:02:58;3.72;;;3.63;;
10729;SDS011;5416;59.258;18.128;2024-03-06T11:05:28;3.25;;;3.15;;
10729;SDS011;5416;59.258;18.128;2024-03-06T11:07:56;3.47;;;3.37;;
10729;SDS011;5416;59.258;18.128;2024-03-06T11:10:30;3.45;;;3.35;;
10729;SDS011;5416;59.258;18.128;2024-03-06T11:12:57;3.92;;;3.83;;
10729;SDS011;5416;59.258;18.128;2024-03-06T11:15:26;3.65;;;3.55;;
10729;SDS011;5416;59.258;18.128;2024-03-06T11:17:53;3.92;;;3.83;;
10729;SDS011;5416;59.258;18.128;2024-03-06T11:20:20;3.55;;;3.45;;
10729;SDS011;5416;59.258;18.128;2024-03-06T11:23:07;4.13;;;4.03;;
10729;SDS011;5416;59.258;18.128;2024-03-06T11:28:21;3.50;;;3.40;;
10729;SDS011;5416;59.258;18.128;2024-03-06T11:30:55;3.67;;;3.58;;
10729;SDS011;5416;59.258;18.128;2024-03-06T11:33:23;4.10;;;4.00;;
10729;SDS011;5416;59.258;18.128;2024-03-06T11:38:37;4.50;;;4.40;;
10729;SDS011;5416;59.258;18.128;2024-03-06T11:41:05;3.92;;;3.83;;
10729;SDS011;5416;59.258;18.128;2024-03-06T11:43:41;4.03;;;3.92;;
10729;SDS011;5416;59.258;18.128;2024-03-06T11:46:10;4.07;;;3.97;;
10729;SDS011;5416;59.258;18.128;2024-03-06T11:48:38;4.20;;;4.10;;
10729;SDS011;5416;59.258;18.128;2024-03-06T11:51:05;4.30;;;4.20;;
10729;SDS011;5416;59.258;18.128;2024-03-06T11:53:33;3.80;;;3.70;;
10729;SDS011;5416;59.258;18.128;2024-03-06T11:56:01;3.95;;;3.85;;
10729;SDS011;5416;59.258;18.128;2024-03-06T11:58:28;3.65;;;3.55;;
10729;SDS011;5416;59.258;18.128;2024-03-06T12:00:56;3.80;;;3.70;;
10729;SDS011;5416;59.258;18.128;2024-03-06T12:03:24;3.95;;;3.85;;
10729;SDS011;5416;59.258;18.128;2024-03-06T12:05:52;3.70;;;3.60;;
10729;SDS011;5416;59.258;18.128;2024-03-06T12:08:19;3.90;;;3.80;;
10729;SDS011;5416;59.258;18.128;2024-03-06T12:10:46;4.03;;;3.92;;
10729;SDS011;5416;59.258;18.128;2024-03-06T12:13:13;3.90;;;3.80;;
10729;SDS011;5416;59.258;18.128;2024-03-06T12:15:42;3.72;;;3.63;;
10729;SDS011;5416;59.258;18.128;2024-03-06T12:18:10;4.20;;;4.10;;
10729;SDS011;5416;59.258;18.128;2024-03-06T12:20:41;3.75;;;3.65;;
10729;SDS011;5416;59.258;18.128;2024-03-06T12:23:18;3.80;;;3.70;;
10729;SDS011;5416;59.258;18.128;2024-03-06T12:25:47;3.40;;;3.30;;
10729;SDS011;5416;59.258;18.128;2024-03-06T12:28:14;3.92;;;3.83;;
10729;SDS011;5416;59.258;18.128;2024-03-06T12:30:43;3.80;;;3.70;;
10729;SDS011;5416;59.258;18.128;2024-03-06T12:33:11;3.90;;;3.80;;
10729;SDS011;5416;59.258;18.128;2024-03-06T12:35:44;4.07;;;3.97;;
10729;SDS011;5416;59.258;18.128;2024-03-06T12:38:13;3.42;;;3.33;;
10729;SDS011;5416;59.258;18.128;2024-03-06T12:40:40;3.97;;;3.87;;
10729;SDS011;5416;59.258;18.128;2024-03-06T12:43:07;4.03;;;3.92;;
10729;SDS011;5416;59.258;18.128;2024-03-06T12:45:35;3.63;;;3.53;;
10729;SDS011;5416;59.258;18.128;2024-03-06T12:48:03;3.90;;;3.80;;
10729;SDS011;5416;59.258;18.128;2024-03-06T12:50:31;3.85;;;3.75;;
10729;SDS011;5416;59.258;18.128;2024-03-06T12:53:00;3.77;;;3.67;;
10729;SDS011;5416;59.258;18.128;2024-03-06T12:55:29;3.83;;;3.72;;
10729;SDS011;5416;59.258;18.128;2024-03-06T12:57:57;4.18;;;4.07;;
10729;SDS011;5416;59.258;18.128;2024-03-06T13:00:24;4.18;;;4.07;;
10729;SDS011;5416;59.258;18.128;2024-03-06T13:02:51;3.83;;;3.72;;
10729;SDS011;5416;59.258;18.128;2024-03-06T13:05:18;4.22;;;4.13;;
10729;SDS011;5416;59.258;18.128;2024-03-06T13:07:45;3.65;;;3.55;;
10729;SDS011;5416;59.258;18.128;2024-03-06T13:10:14;4.32;;;4.22;;
10729;SDS011;5416;59.258;18.128;2024-03-06T13:12:41;3.85;;;3.75;;
10729;SDS011;5416;59.258;18.128;2024-03-06T13:15:08;3.70;;;3.60;;
10729;SDS011;5416;59.258;18.128;2024-03-06T13:17:36;4.00;;;3.90;;
10729;SDS011;5416;59.258;18.128;2024-03-06T13:20:05;3.97;;;3.88;;
10729;SDS011;5416;59.258;18.128;2024-03-06T13:22:34;4.30;;;4.20;;
10729;SDS011;5416;59.258;18.128;2024-03-06T13:25:01;4.00;;;3.90;;
10729;SDS011;5416;59.258;18.128;2024-03-06T13:27:30;4.30;;;4.20;;
10729;SDS011;5416;59.258;18.128;2024-03-06T13:29:57;4.15;;;4.05;;
10729;SDS011;5416;59.258;18.128;2024-03-06T13:32:25;3.50;;;3.40;;
10729;SDS011;5416;59.258;18.128;2024-03-06T13:34:53;3.67;;;3.58;;
10729;SDS011;5416;59.258;18.128;2024-03-06T13:37:21;4.13;;;4.03;;
10729;SDS011;5416;59.258;18.128;2024-03-06T13:39:48;4.38;;;4.28;;
10729;SDS011;5416;59.258;18.128;2024-03-06T13:42:17;3.92;;;3.83;;
10729;SDS011;5416;59.258;18.128;2024-03-06T13:44:46;4.15;;;4.05;;
10729;SDS011;5416;59.258;18.128;2024-03-06T13:47:14;3.83;;;3.72;;
10729;SDS011;5416;59.258;18.128;2024-03-06T13:49:42;4.00;;;3.90;;
10729;SDS011;5416;59.258;18.128;2024-03-06T13:52:09;4.10;;;4.00;;
10729;SDS011;5416;59.258;18.128;2024-03-06T13:54:38;4.15;;;4.05;;
10729;SDS011;5416;59.258;18.128;2024-03-06T13:57:06;3.85;;;3.75;;
10729;SDS011;5416;59.258;18.128;2024-03-06T13:59:33;4.17;;;4.07;;
10729;SDS011;5416;59.258;18.128;2024-03-06T14:02:02;4.13;;;4.03;;
10729;SDS011;5416;59.258;18.128;2024-03-06T14:04:29;4.00;;;3.90;;
10729;SDS011;5416;59.258;18.128;2024-03-06T14:06:56;4.05;;;3.95;;
10729;SDS011;5416;59.258;18.128;2024-03-06T14:09:24;3.85;;;3.75;;
10729;SDS011;5416;59.258;18.128;2024-03-06T14:11:52;3.33;;;3.22;;
10729;SDS011;5416;59.258;18.128;2024-03-06T14:14:19;3.60;;;3.50;;
10729;SDS011;5416;59.258;18.128;2024-03-06T14:16:47;3.35;;;3.25;;
10729;SDS011;5416;59.258;18.128;2024-03-06T14:19:15;3.17;;;3.08;;
10729;SDS011;5416;59.258;18.128;2024-03-06T14:21:42;3.25;;;3.15;;
10729;SDS011;5416;59.258;18.128;2024-03-06T14:24:09;3.50;;;3.40;;
10729;SDS011;5416;59.258;18.128;2024-03-06T14:26:37;3.58;;;3.47;;
10729;SDS011;5416;59.258;18.128;2024-03-06T14:29:05;3.60;;;3.50;;
10729;SDS011;5416;59.258;18.128;2024-03-06T14:31:34;3.67;;;3.58;;
10729;SDS011;5416;59.258;18.128;2024-03-06T14:34:02;3.90;;;3.80;;
10729;SDS011;5416;59.258;18.128;2024-03-06T14:36:30;4.03;;;3.92;;
10729;SDS011;5416;59.258;18.128;2024-03-06T14:38:57;4.25;;;4.15;;
10729;SDS011;5416;59.258;18.128;2024-03-06T14:41:25;3.83;;;3.72;;
10729;SDS011;5416;59.258;18.128;2024-03-06T14:43:52;4.50;;;4.38;;
10729;SDS011;5416;59.258;18.128;2024-03-06T14:46:19;3.80;;;3.70;;
10729;SDS011;5416;59.258;18.128;2024-03-06T14:48:46;3.53;;;3.43;;
10729;SDS011;5416;59.258;18.128;2024-03-06T14:51:14;3.92;;;3.83;;
10729;SDS011;5416;59.258;18.128;2024-03-06T14:53:42;3.90;;;3.80;;
10729;SDS011;5416;59.258;18.128;2024-03-06T14:56:10;3.65;;;3.55;;